Time;durP1;ratioP1;P1;durP2;ratioP2;P2;SDS_P1;SDS_P2;PMS_P1;PMS_P2;Temp;Humidity;BMP_temperature;BMP_pressure;BME280_temperature;BME280_humidity;BME280_pressure;Samples;Min_cycle;Max_cycle;Signal;HPM_P1;HPM_P2
2022/04/30 00:00:58;;;;;;;;;;;;;;;;;;5072537;28;19931;-57
2022/04/30 00:03:26;;;;;;;;;;;;;;;;;;5070609;28;19916;-52
2022/04/30 00:05:52;;;;;;;;;;;;;;;;;;5052344;28;19917;-50
2022/04/30 00:08:19;;;;;;;;;;;;;;;;;;5052405;28;19927;-54
2022/04/30 00:10:45;;;;;;;;;;;;;;;;;;5051761;28;20001;-53
2022/04/30 00:13:12;;;;;;;;;;;;;;;;;;5052063;28;19909;-52
2022/04/30 00:15:38;;;;;;;;;;;;;;;;;;5052610;28;20006;-54
2022/04/30 00:18:04;;;;;;;;;;;;;;;;;;5051124;28;19909;-49
2022/04/30 00:20:32;;;;;;;;;;;;;;;;;;5052408;28;20030;-53
2022/04/30 00:22:59;;;;;;;;;;;;;;;;;;5052850;28;19991;-47
2022/04/30 00:25:25;;;;;;;;;;;;;;;;;;5052693;28;19924;-53
2022/04/30 00:27:52;;;;;;;;;;;;;;;;;;5052244;28;19986;-57
2022/04/30 00:30:18;;;;;;;;;;;;;;;;;;5051772;28;19909;-49
2022/04/30 00:32:45;;;;;;;;;;;;;;;;;;5052107;28;19909;-58
2022/04/30 00:35:11;;;;;;;;;;;;;;;;;;5051856;28;19908;-56
2022/04/30 00:37:38;;;;;;;;;;;;;;;;;;5051972;28;19915;-50
2022/04/30 00:40:04;;;;;;;;;;;;;;;;;;5052515;28;20004;-53
2022/04/30 00:42:31;;;;;;;;;;;;;;;;;;5052470;28;19916;-44
2022/04/30 00:44:57;;;;;;;;;;;;;;;;;;5051956;28;19956;-54
2022/04/30 00:47:26;;;;;;;;;;;;;;;;;;5052086;28;19909;-50
2022/04/30 00:49:53;;;;;;;;;;;;;;;;;;5061264;28;19962;-51
2022/04/30 00:52:19;;;;;;;;;;;;;;;;;;5076048;28;19948;-56
2022/04/30 00:54:46;;;;;;;;;;;;;;;;;;5076410;28;19908;-56
2022/04/30 00:57:13;;;;;;;;;;;;;;;;;;5076432;28;19951;-54
2022/04/30 00:59:39;;;;;;;;;;;;;;;;;;5076104;28;19948;-52
2022/04/30 01:02:06;;;;;;;;;;;;;;;;;;5076393;28;19966;-52
2022/04/30 01:04:32;;;;;;;;;;;;;;;;;;5075898;28;19919;-56
2022/04/30 01:07:00;;;;;;;;;;;;;;;;;;5075691;28;19994;-52
2022/04/30 01:09:28;;;;;;;;;;;;;;;;;;5075715;28;19920;-49
2022/04/30 01:11:55;;;;;;;;;;;;;;;;;;5075112;28;19931;-48
2022/04/30 01:14:22;;;;;;;;;;;;;;;;;;5075236;28;20417;-49
2022/04/30 01:16:49;;;;;;;;;;;;;;;;;;5075555;28;19999;-53
2022/04/30 01:19:15;;;;;;;;;;;;;;;;;;5074931;28;19908;-50
2022/04/30 01:21:42;;;;;;;;;;;;;;;;;;5075140;28;19920;-44
2022/04/30 01:24:08;;;;;;;;;;;;;;;;;;5074065;28;19950;-44
2022/04/30 01:26:35;;;;;;;;;;;;;;;;;;5075725;28;20336;-50
2022/04/30 01:29:01;;;;;;;;;;;;;;;;;;5075220;28;20314;-49
2022/04/30 01:39:42;;;;;;;;;;;;;;;;;;5054693;28;19962;-51
2022/04/30 01:42:11;;;;;;;;;;;;;;;;;;5055317;28;19909;-49
2022/04/30 01:44:38;;;;;;;;;;;;;;;;;;5054697;28;19954;-56
2022/04/30 01:47:05;;;;;;;;;;;;;;;;;;5062541;28;19908;-52
2022/04/30 01:49:31;;;;;;;;;;;;;;;;;;5074954;28;19917;-56
2022/04/30 01:51:58;;;;;;;;;;;;;;;;;;5075267;28;20442;-51
2022/04/30 01:54:24;;;;;;;;;;;;;;;;;;5074430;28;20031;-51
2022/04/30 01:56:51;;;;;;;;;;;;;;;;;;5074829;28;19931;-55
2022/04/30 01:59:18;;;;;;;;;;;;;;;;;;5074543;28;19987;-50
2022/04/30 02:01:44;;;;;;;;;;;;;;;;;;5074513;28;19981;-59
2022/04/30 02:04:11;;;;;;;;;;;;;;;;;;5074639;28;19909;-57
2022/04/30 02:06:38;;;;;;;;;;;;;;;;;;5074867;28;19927;-51
2022/04/30 02:09:04;;;;;;;;;;;;;;;;;;5074192;28;19920;-55
2022/04/30 02:11:31;;;;;;;;;;;;;;;;;;5075186;28;20390;-55
2022/04/30 02:13:57;;;;;;;;;;;;;;;;;;5074569;28;20362;-54
2022/04/30 02:16:24;;;;;;;;;;;;;;;;;;5074411;28;19912;-48
2022/04/30 02:18:51;;;;;;;;;;;;;;;;;;5075055;28;19908;-50
2022/04/30 02:21:21;;;;;;;;;;;;;;;;;;5074824;28;19908;-52
2022/04/30 02:23:48;;;;;;;;;;;;;;;;;;5074399;28;19946;-51
2022/04/30 02:26:14;;;;;;;;;;;;;;;;;;5074681;28;19909;-51
2022/04/30 02:28:42;;;;;;;;;;;;;;;;;;5057536;28;19917;-55
2022/04/30 02:31:08;;;;;;;;;;;;;;;;;;5054247;28;19915;-54
2022/04/30 02:33:34;;;;;;;;;;;;;;;;;;5054586;28;19909;-48
2022/04/30 02:36:01;;;;;;;;;;;;;;;;;;5054181;28;19909;-53
2022/04/30 02:38:28;;;;;;;;;;;;;;;;;;5054237;28;20293;-54
2022/04/30 02:40:55;;;;;;;;;;;;;;;;;;5054449;28;19905;-54
2022/04/30 02:43:26;;;;;;;;;;;;;;;;;;5053635;28;19916;-56
2022/04/30 02:45:52;;;;;;;;;;;;;;;;;;5053509;28;19909;-57
2022/04/30 02:48:19;;;;;;;;;;;;;;;;;;5059906;28;19916;-54
2022/04/30 02:50:45;;;;;;;;;;;;;;;;;;5073942;28;19919;-51
2022/04/30 02:53:12;;;;;;;;;;;;;;;;;;5073851;28;20363;-50
2022/04/30 02:55:38;;;;;;;;;;;;;;;;;;5073762;28;19908;-53
2022/04/30 03:00:51;;;;;;;;;;;;;;;;;;5052275;28;19931;-48
2022/04/30 03:03:17;;;;;;;;;;;;;;;;;;5053728;28;20749;-50
2022/04/30 03:05:44;;;;;;;;;;;;;;;;;;5054026;28;20011;-47
2022/04/30 03:08:14;;;;;;;;;;;;;;;;;;5053345;28;20353;-48
2022/04/30 03:10:41;;;;;;;;;;;;;;;;;;5053253;28;19909;-47
2022/04/30 03:13:07;;;;;;;;;;;;;;;;;;5053483;28;19909;-51
2022/04/30 03:15:34;;;;;;;;;;;;;;;;;;5053487;28;20007;-50
2022/04/30 03:23:29;;;;;;;;;;;;;;;;;;5053145;28;20375;-51
2022/04/30 03:25:56;;;;;;;;;;;;;;;;;;5053550;28;20342;-54
2022/04/30 03:28:22;;;;;;;;;;;;;;;;;;5053467;28;20232;-54
2022/04/30 03:30:48;;;;;;;;;;;;;;;;;;5052760;28;19915;-55
2022/04/30 03:33:15;;;;;;;;;;;;;;;;;;5053292;28;19909;-55
2022/04/30 03:35:42;;;;;;;;;;;;;;;;;;5053151;28;19928;-49
2022/04/30 03:38:08;;;;;;;;;;;;;;;;;;5052911;28;19935;-50
2022/04/30 03:40:35;;;;;;;;;;;;;;;;;;5068191;28;20275;-51
2022/04/30 03:43:01;;;;;;;;;;;;;;;;;;5065268;28;19912;-52
2022/04/30 03:45:28;;;;;;;;;;;;;;;;;;5053029;28;19917;-57
2022/04/30 03:47:54;;;;;;;;;;;;;;;;;;5052570;28;19948;-46
2022/04/30 03:50:21;;;;;;;;;;;;;;;;;;5052379;28;19975;-48
2022/04/30 03:52:47;;;;;;;;;;;;;;;;;;5052869;28;19999;-47
2022/04/30 03:55:17;;;;;;;;;;;;;;;;;;5052824;28;19909;-51
2022/04/30 03:57:43;;;;;;;;;;;;;;;;;;5052872;28;19908;-44
2022/04/30 04:00:10;;;;;;;;;;;;;;;;;;5060998;28;20267;-51
2022/04/30 04:02:39;;;;;;;;;;;;;;;;;;5071088;28;20304;-46
2022/04/30 04:05:06;;;;;;;;;;;;;;;;;;5072120;28;19958;-49
2022/04/30 04:07:32;;;;;;;;;;;;;;;;;;5072803;28;19909;-56
2022/04/30 04:09:59;;;;;;;;;;;;;;;;;;5073260;28;19956;-53
2022/04/30 04:12:25;;;;;;;;;;;;;;;;;;5073147;28;19916;-46
2022/04/30 04:17:39;;;;;;;;;;;;;;;;;;5072533;28;19920;-57
2022/04/30 04:20:06;;;;;;;;;;;;;;;;;;5071389;28;20011;-52
2022/04/30 04:22:32;;;;;;;;;;;;;;;;;;5071599;28;20251;-52
2022/04/30 04:27:43;;;;;;;;;;;;;;;;;;5072502;28;19915;-43
2022/04/30 04:30:10;;;;;;;;;;;;;;;;;;5071582;28;19916;-46
2022/04/30 04:32:36;;;;;;;;;;;;;;;;;;5072616;28;19913;-46
2022/04/30 04:35:03;;;;;;;;;;;;;;;;;;5070537;28;19931;-47
2022/04/30 04:37:29;;;;;;;;;;;;;;;;;;5072381;28;19913;-51
2022/04/30 04:39:56;;;;;;;;;;;;;;;;;;5071967;28;19912;-49
2022/04/30 04:42:22;;;;;;;;;;;;;;;;;;5072231;28;19932;-55
2022/04/30 04:44:49;;;;;;;;;;;;;;;;;;5072381;28;20053;-47
2022/04/30 04:47:15;;;;;;;;;;;;;;;;;;5071987;28;19936;-47
2022/04/30 04:49:42;;;;;;;;;;;;;;;;;;5071858;28;20007;-54
2022/04/30 04:52:08;;;;;;;;;;;;;;;;;;5071606;28;19909;-43
2022/04/30 04:54:35;;;;;;;;;;;;;;;;;;5072520;28;20008;-50
2022/04/30 04:57:01;;;;;;;;;;;;;;;;;;5071126;28;20059;-50
2022/04/30 04:59:28;;;;;;;;;;;;;;;;;;5071733;28;20320;-48
2022/04/30 05:01:54;;;;;;;;;;;;;;;;;;5071702;28;20409;-46
2022/04/30 05:04:21;;;;;;;;;;;;;;;;;;5070802;28;19912;-52
2022/04/30 05:06:51;;;;;;;;;;;;;;;;;;5072195;28;19952;-46
2022/04/30 05:09:18;;;;;;;;;;;;;;;;;;5070992;28;19960;-47
2022/04/30 05:11:44;;;;;;;;;;;;;;;;;;5072060;28;19991;-47
2022/04/30 05:14:11;;;;;;;;;;;;;;;;;;5072137;28;20384;-44
2022/04/30 05:16:38;;;;;;;;;;;;;;;;;;5071675;28;19915;-45
2022/04/30 05:19:05;;;;;;;;;;;;;;;;;;5071514;28;19954;-42
2022/04/30 05:21:31;;;;;;;;;;;;;;;;;;5072334;28;20305;-46
2022/04/30 05:23:58;;;;;;;;;;;;;;;;;;5072244;28;19909;-46
2022/04/30 05:26:24;;;;;;;;;;;;;;;;;;5072098;28;19908;-50
2022/04/30 05:28:51;;;;;;;;;;;;;;;;;;5071751;28;20386;-46
2022/04/30 05:31:18;;;;;;;;;;;;;;;;;;5071973;28;19908;-45
2022/04/30 05:33:44;;;;;;;;;;;;;;;;;;5072384;28;19908;-46
2022/04/30 05:36:11;;;;;;;;;;;;;;;;;;5076081;28;19909;-51
2022/04/30 05:38:37;;;;;;;;;;;;;;;;;;5075623;28;19908;-47
2022/04/30 05:41:04;;;;;;;;;;;;;;;;;;5075892;28;19927;-47
2022/04/30 05:43:31;;;;;;;;;;;;;;;;;;5075775;28;20002;-51
2022/04/30 05:45:57;;;;;;;;;;;;;;;;;;5075639;28;19915;-43
2022/04/30 05:48:23;;;;;;;;;;;;;;;;;;5074513;28;19916;-51
2022/04/30 05:50:51;;;;;;;;;;;;;;;;;;5075599;28;20279;-44
2022/04/30 05:53:18;;;;;;;;;;;;;;;;;;5075005;28;19909;-41
2022/04/30 05:55:44;;;;;;;;;;;;;;;;;;5074033;28;20355;-46
2022/04/30 05:58:11;;;;;;;;;;;;;;;;;;5074541;28;19909;-47
2022/04/30 06:00:37;;;;;;;;;;;;;;;;;;5074915;28;19939;-49
2022/04/30 06:03:04;;;;;;;;;;;;;;;;;;5075165;28;20355;-45
2022/04/30 06:05:30;;;;;;;;;;;;;;;;;;5075427;28;19928;-55
2022/04/30 06:07:57;;;;;;;;;;;;;;;;;;5075320;28;19909;-53
2022/04/30 06:10:23;;;;;;;;;;;;;;;;;;5075191;28;19908;-45
2022/04/30 06:12:50;;;;;;;;;;;;;;;;;;5074872;28;19909;-53
2022/04/30 06:15:16;;;;;;;;;;;;;;;;;;5057932;28;19913;-47
2022/04/30 06:17:43;;;;;;;;;;;;;;;;;;5054607;28;19909;-52
2022/04/30 06:20:09;;;;;;;;;;;;;;;;;;5054479;28;19909;-52
2022/04/30 06:22:36;;;;;;;;;;;;;;;;;;5054811;28;19935;-44
2022/04/30 06:25:02;;;;;;;;;;;;;;;;;;5055238;28;19908;-47
2022/04/30 06:27:29;;;;;;;;;;;;;;;;;;5054764;28;20004;-55
2022/04/30 06:29:55;;;;;;;;;;;;;;;;;;5054373;28;19951;-55
2022/04/30 06:32:22;;;;;;;;;;;;;;;;;;5057612;28;19913;-48
2022/04/30 06:34:48;;;;;;;;;;;;;;;;;;5075031;28;19909;-54
2022/04/30 06:37:16;;;;;;;;;;;;;;;;;;5074932;28;19954;-52
2022/04/30 06:39:43;;;;;;;;;;;;;;;;;;5074674;28;19909;-48
2022/04/30 06:42:09;;;;;;;;;;;;;;;;;;5074349;28;19935;-53
2022/04/30 06:44:36;;;;;;;;;;;;;;;;;;5074725;28;19919;-52
2022/04/30 06:47:02;;;;;;;;;;;;;;;;;;5073746;28;19994;-49
2022/04/30 06:49:29;;;;;;;;;;;;;;;;;;5074198;28;19916;-50
2022/04/30 06:51:55;;;;;;;;;;;;;;;;;;5074457;28;19935;-47
2022/04/30 06:57:14;;;;;;;;;;;;;;;;;;5074002;28;20288;-44
2022/04/30 06:59:41;;;;;;;;;;;;;;;;;;5073551;28;20424;-51
2022/04/30 07:02:12;;;;;;;;;;;;;;;;;;5073181;28;19951;-46
2022/04/30 07:04:39;;;;;;;;;;;;;;;;;;5068350;28;19916;-47
2022/04/30 07:07:05;;;;;;;;;;;;;;;;;;5053273;28;20390;-52
2022/04/30 07:09:35;;;;;;;;;;;;;;;;;;5053450;28;20274;-52
2022/04/30 07:12:03;;;;;;;;;;;;;;;;;;5053202;28;19908;-53
2022/04/30 07:14:29;;;;;;;;;;;;;;;;;;5052974;28;19940;-53
2022/04/30 07:16:56;;;;;;;;;;;;;;;;;;5053508;28;19924;-51
2022/04/30 07:19:22;;;;;;;;;;;;;;;;;;5053374;28;19908;-49
2022/04/30 07:21:48;;;;;;;;;;;;;;;;;;5052597;28;20034;-52
2022/04/30 07:24:15;;;;;;;;;;;;;;;;;;5053086;28;19980;-47
2022/04/30 07:26:41;;;;;;;;;;;;;;;;;;5053187;28;19915;-54
2022/04/30 07:29:08;;;;;;;;;;;;;;;;;;5053050;28;19917;-54
2022/04/30 07:31:34;;;;;;;;;;;;;;;;;;5054899;28;19919;-49
2022/04/30 07:34:01;;;;;;;;;;;;;;;;;;5073072;28;20259;-52
2022/04/30 07:36:27;;;;;;;;;;;;;;;;;;5072860;28;19912;-48
2022/04/30 07:38:55;;;;;;;;;;;;;;;;;;5073114;28;19940;-49
2022/04/30 07:41:21;;;;;;;;;;;;;;;;;;5072897;28;20256;-44
2022/04/30 07:43:48;;;;;;;;;;;;;;;;;;5073153;28;20011;-54
2022/04/30 07:46:14;;;;;;;;;;;;;;;;;;5072596;28;19909;-48
2022/04/30 07:48:41;;;;;;;;;;;;;;;;;;5072351;28;19923;-52
2022/04/30 07:51:14;;;;;;;;;;;;;;;;;;5072824;28;20326;-50
2022/04/30 07:53:43;;;;;;;;;;;;;;;;;;5071860;28;19980;-50
2022/04/30 07:56:10;;;;;;;;;;;;;;;;;;5073034;28;20348;-50
2022/04/30 07:58:36;;;;;;;;;;;;;;;;;;5072709;28;20201;-48
2022/04/30 08:01:03;;;;;;;;;;;;;;;;;;5072248;28;19995;-42
2022/04/30 08:03:29;;;;;;;;;;;;;;;;;;5072166;28;19908;-52
2022/04/30 08:05:56;;;;;;;;;;;;;;;;;;5072008;28;19954;-50
2022/04/30 08:08:22;;;;;;;;;;;;;;;;;;5072116;28;19951;-52
2022/04/30 08:10:49;;;;;;;;;;;;;;;;;;5072616;28;20400;-51
2022/04/30 08:13:15;;;;;;;;;;;;;;;;;;5072568;28;19952;-51
2022/04/30 08:15:43;;;;;;;;;;;;;;;;;;5072440;28;19909;-48
2022/04/30 08:18:10;;;;;;;;;;;;;;;;;;5072576;28;19951;-53
2022/04/30 08:20:37;;;;;;;;;;;;;;;;;;5057293;28;20201;-51
2022/04/30 08:23:04;;;;;;;;;;;;;;;;;;5053012;28;19908;-57
2022/04/30 08:25:30;;;;;;;;;;;;;;;;;;5052851;28;19951;-55
2022/04/30 08:27:57;;;;;;;;;;;;;;;;;;5052787;28;19913;-49
2022/04/30 08:30:23;;;;;;;;;;;;;;;;;;5069348;28;19927;-45
2022/04/30 08:32:50;;;;;;;;;;;;;;;;;;5073022;28;19956;-45
2022/04/30 08:35:16;;;;;;;;;;;;;;;;;;5072432;28;19938;-57
2022/04/30 08:37:43;;;;;;;;;;;;;;;;;;5072996;28;19944;-51
2022/04/30 08:40:09;;;;;;;;;;;;;;;;;;5072305;28;19908;-50
2022/04/30 08:42:36;;;;;;;;;;;;;;;;;;5072088;28;19916;-54
2022/04/30 08:45:02;;;;;;;;;;;;;;;;;;5072827;28;19909;-53
2022/04/30 08:47:29;;;;;;;;;;;;;;;;;;5071147;28;19908;-53
2022/04/30 08:49:55;;;;;;;;;;;;;;;;;;5072652;28;19938;-57
2022/04/30 08:52:21;;;;;;;;;;;;;;;;;;5072146;28;19908;-54
2022/04/30 08:54:48;;;;;;;;;;;;;;;;;;5072395;28;19999;-55
2022/04/30 08:57:15;;;;;;;;;;;;;;;;;;5072394;28;19913;-55
2022/04/30 08:59:41;;;;;;;;;;;;;;;;;;5071466;28;19998;-52
2022/04/30 09:02:08;;;;;;;;;;;;;;;;;;5072435;28;19915;-46
2022/04/30 09:04:34;;;;;;;;;;;;;;;;;;5072595;28;19922;-52
2022/04/30 09:07:01;;;;;;;;;;;;;;;;;;5072537;28;20398;-47
2022/04/30 09:09:30;;;;;;;;;;;;;;;;;;5074178;28;20375;-56
2022/04/30 09:11:57;;;;;;;;;;;;;;;;;;5075980;28;19934;-51
2022/04/30 09:14:23;;;;;;;;;;;;;;;;;;5076169;28;19944;-52
2022/04/30 09:16:51;;;;;;;;;;;;;;;;;;5076242;28;19954;-55
2022/04/30 09:19:18;;;;;;;;;;;;;;;;;;5075974;28;20351;-54
2022/04/30 09:21:44;;;;;;;;;;;;;;;;;;5075961;28;19963;-51
2022/04/30 09:24:14;;;;;;;;;;;;;;;;;;5075910;28;19915;-54
2022/04/30 09:26:41;;;;;;;;;;;;;;;;;;5076390;28;19908;-53
2022/04/30 09:29:07;;;;;;;;;;;;;;;;;;5076569;28;19973;-50
2022/04/30 09:31:34;;;;;;;;;;;;;;;;;;5076418;28;20393;-53
2022/04/30 09:37:41;;;;;;;;;;;;;;;;;;5075987;28;20413;-52
2022/04/30 09:39:31;;;;;;;;;;;;;;;;;;5076149;28;19954;-51
2022/04/30 09:41:57;;;;;;;;;;;;;;;;;;5075162;28;19991;-55
2022/04/30 09:44:24;;;;;;;;;;;;;;;;;;5075354;28;19940;-55
2022/04/30 09:46:50;;;;;;;;;;;;;;;;;;5074887;28;19987;-57
2022/04/30 09:54:46;;;;;;;;;;;;;;;;;;5076046;28;19931;-54
2022/04/30 09:57:14;;;;;;;;;;;;;;;;;;5061676;28;19908;-55
2022/04/30 09:59:40;;;;;;;;;;;;;;;;;;5055342;28;19909;-49
2022/04/30 10:02:07;;;;;;;;;;;;;;;;;;5055778;28;19916;-41
2022/04/30 10:04:34;;;;;;;;;;;;;;;;;;5058791;28;20406;-56
2022/04/30 10:07:00;;;;;;;;;;;;;;;;;;5075359;28;19920;-53
2022/04/30 10:09:27;;;;;;;;;;;;;;;;;;5075277;28;19924;-54
2022/04/30 10:11:54;;;;;;;;;;;;;;;;;;5075026;28;19909;-57
2022/04/30 10:14:22;;;;;;;;;;;;;;;;;;5074002;28;19935;-53
2022/04/30 10:17:11;;;;;;;;;;;;;;;;;;5074541;28;19912;-55
2022/04/30 10:19:34;;;;;;;;;;;;;;;;;;5075207;28;19944;-56
2022/04/30 10:22:01;;;;;;;;;;;;;;;;;;5074823;28;19909;-51
2022/04/30 10:24:27;;;;;;;;;;;;;;;;;;5075124;28;19923;-56
2022/04/30 10:26:54;;;;;;;;;;;;;;;;;;5073965;28;20260;-45
2022/04/30 10:29:20;;;;;;;;;;;;;;;;;;5075423;28;19991;-50
2022/04/30 10:31:46;;;;;;;;;;;;;;;;;;5074794;28;20275;-49
2022/04/30 10:34:13;;;;;;;;;;;;;;;;;;5075180;28;19909;-51
2022/04/30 10:36:39;;;;;;;;;;;;;;;;;;5075223;28;19935;-55
2022/04/30 10:39:14;;;;;;;;;;;;;;;;;;5074613;28;20009;-50
2022/04/30 10:41:41;;;;;;;;;;;;;;;;;;5074790;28;20381;-54
2022/04/30 10:44:08;;;;;;;;;;;;;;;;;;5074758;28;19934;-48
2022/04/30 10:46:34;;;;;;;;;;;;;;;;;;5074620;28;19909;-48
2022/04/30 10:49:01;;;;;;;;;;;;;;;;;;5074675;28;19951;-47
2022/04/30 10:51:27;;;;;;;;;;;;;;;;;;5074874;28;19909;-54
2022/04/30 10:53:54;;;;;;;;;;;;;;;;;;5074568;28;19924;-49
2022/04/30 10:56:20;;;;;;;;;;;;;;;;;;5074025;28;19952;-57
2022/04/30 10:58:48;;;;;;;;;;;;;;;;;;5074733;28;19908;-52
2022/04/30 11:01:14;;;;;;;;;;;;;;;;;;5074665;28;19915;-53
2022/04/30 11:03:41;;;;;;;;;;;;;;;;;;5074805;28;20320;-57
2022/04/30 11:06:07;;;;;;;;;;;;;;;;;;5074013;28;19920;-55
2022/04/30 11:08:34;;;;;;;;;;;;;;;;;;5074509;28;19916;-46
2022/04/30 11:11:00;;;;;;;;;;;;;;;;;;5074032;28;20325;-52
2022/04/30 11:13:27;;;;;;;;;;;;;;;;;;5074323;28;20309;-53
2022/04/30 11:15:53;;;;;;;;;;;;;;;;;;5074334;28;20328;-55
2022/04/30 11:18:20;;;;;;;;;;;;;;;;;;5074300;28;19952;-47
2022/04/30 11:20:46;;;;;;;;;;;;;;;;;;5073696;28;20371;-54
2022/04/30 11:23:13;;;;;;;;;;;;;;;;;;5074036;28;19904;-52
2022/04/30 11:25:39;;;;;;;;;;;;;;;;;;5073993;28;19920;-51
2022/04/30 11:28:06;;;;;;;;;;;;;;;;;;5073981;28;19919;-46
2022/04/30 11:30:32;;;;;;;;;;;;;;;;;;5074087;28;20024;-53
2022/04/30 11:32:59;;;;;;;;;;;;;;;;;;5073326;28;19908;-51
2022/04/30 11:35:25;;;;;;;;;;;;;;;;;;5074006;28;19987;-51
2022/04/30 11:37:52;;;;;;;;;;;;;;;;;;5073800;28;20267;-54
2022/04/30 11:40:18;;;;;;;;;;;;;;;;;;5073020;28;19912;-55
2022/04/30 11:42:45;;;;;;;;;;;;;;;;;;5073598;28;19909;-53
2022/04/30 11:45:11;;;;;;;;;;;;;;;;;;5073245;28;19940;-51
2022/04/30 11:47:38;;;;;;;;;;;;;;;;;;5073072;28;19954;-52
2022/04/30 11:50:04;;;;;;;;;;;;;;;;;;5072832;28;19923;-58
2022/04/30 11:52:31;;;;;;;;;;;;;;;;;;5072607;28;19909;-45
2022/04/30 11:54:57;;;;;;;;;;;;;;;;;;5072920;28;20363;-53
2022/04/30 11:57:24;;;;;;;;;;;;;;;;;;5073007;28;20015;-53
2022/04/30 11:59:50;;;;;;;;;;;;;;;;;;5073434;28;19912;-57
2022/04/30 12:02:16;;;;;;;;;;;;;;;;;;5072914;28;20003;-53
2022/04/30 12:04:43;;;;;;;;;;;;;;;;;;5072947;28;19916;-53
2022/04/30 12:07:09;;;;;;;;;;;;;;;;;;5071146;28;19977;-50
2022/04/30 12:09:39;;;;;;;;;;;;;;;;;;5051065;28;20191;-50
2022/04/30 12:12:08;;;;;;;;;;;;;;;;;;5052561;28;19913;-52
2022/04/30 12:14:34;;;;;;;;;;;;;;;;;;5053306;28;19908;-52
2022/04/30 12:17:00;;;;;;;;;;;;;;;;;;5056394;28;19908;-57
2022/04/30 12:24:56;;;;;;;;;;;;;;;;;;5073184;28;19920;-55
2022/04/30 12:27:23;;;;;;;;;;;;;;;;;;5072899;28;19999;-49
2022/04/30 12:29:50;;;;;;;;;;;;;;;;;;5072941;28;19916;-49
2022/04/30 12:32:17;;;;;;;;;;;;;;;;;;5072488;28;19965;-54
2022/04/30 12:34:44;;;;;;;;;;;;;;;;;;5072857;28;19908;-53
2022/04/30 12:37:10;;;;;;;;;;;;;;;;;;5072684;28;19909;-51
2022/04/30 12:39:37;;;;;;;;;;;;;;;;;;5072977;28;19908;-48
2022/04/30 12:42:04;;;;;;;;;;;;;;;;;;5072746;28;19970;-52
2022/04/30 12:44:31;;;;;;;;;;;;;;;;;;5070480;28;20026;-53
2022/04/30 12:46:57;;;;;;;;;;;;;;;;;;5073096;28;19941;-55
2022/04/30 12:49:24;;;;;;;;;;;;;;;;;;5072537;28;20359;-54
2022/04/30 12:51:50;;;;;;;;;;;;;;;;;;5072602;28;19909;-56
2022/04/30 12:54:17;;;;;;;;;;;;;;;;;;5072007;28;20354;-50
2022/04/30 12:56:43;;;;;;;;;;;;;;;;;;5072244;28;19909;-52
2022/04/30 12:59:10;;;;;;;;;;;;;;;;;;5072972;28;19908;-48
2022/04/30 13:01:39;;;;;;;;;;;;;;;;;;5073269;28;19912;-49
2022/04/30 13:04:05;;;;;;;;;;;;;;;;;;5072236;28;19909;-51
2022/04/30 13:06:32;;;;;;;;;;;;;;;;;;5072058;28;19924;-52
2022/04/30 13:14:27;;;;;;;;;;;;;;;;;;5072542;28;19998;-43
2022/04/30 13:16:54;;;;;;;;;;;;;;;;;;5072405;28;19915;-45
2022/04/30 13:19:20;;;;;;;;;;;;;;;;;;5073007;28;20381;-45
2022/04/30 13:21:47;;;;;;;;;;;;;;;;;;5072625;28;19991;-50
2022/04/30 13:24:14;;;;;;;;;;;;;;;;;;5071331;28;19908;-47
2022/04/30 13:26:40;;;;;;;;;;;;;;;;;;5072359;28;19940;-53
2022/04/30 13:29:10;;;;;;;;;;;;;;;;;;5072171;28;20294;-51
2022/04/30 13:31:37;;;;;;;;;;;;;;;;;;5072165;28;19913;-46
2022/04/30 13:34:04;;;;;;;;;;;;;;;;;;5072542;28;19962;-44
2022/04/30 13:36:30;;;;;;;;;;;;;;;;;;5072078;28;19908;-48
2022/04/30 13:38:58;;;;;;;;;;;;;;;;;;5072283;28;19909;-48
2022/04/30 13:41:25;;;;;;;;;;;;;;;;;;5072167;28;19916;-47
2022/04/30 13:43:51;;;;;;;;;;;;;;;;;;5072346;28;20022;-51
2022/04/30 13:46:18;;;;;;;;;;;;;;;;;;5071674;28;19964;-47
2022/04/30 13:48:44;;;;;;;;;;;;;;;;;;5072139;28;19986;-53
2022/04/30 13:51:11;;;;;;;;;;;;;;;;;;5072325;28;19915;-45
2022/04/30 13:53:37;;;;;;;;;;;;;;;;;;5072244;28;19908;-53
2022/04/30 13:56:04;;;;;;;;;;;;;;;;;;5074661;28;20293;-50
2022/04/30 13:58:30;;;;;;;;;;;;;;;;;;5075674;28;20421;-51
2022/04/30 14:00:57;;;;;;;;;;;;;;;;;;5075700;28;20251;-49
2022/04/30 14:03:23;;;;;;;;;;;;;;;;;;5075740;28;19915;-53
2022/04/30 14:05:50;;;;;;;;;;;;;;;;;;5075317;28;19924;-50
2022/04/30 14:08:16;;;;;;;;;;;;;;;;;;5075230;28;19919;-47
2022/04/30 14:10:44;;;;;;;;;;;;;;;;;;5072199;28;19954;-51
2022/04/30 14:15:55;;;;;;;;;;;;;;;;;;5055449;28;19951;-50
2022/04/30 14:18:24;;;;;;;;;;;;;;;;;;5055103;28;19909;-50
2022/04/30 14:20:51;;;;;;;;;;;;;;;;;;5055625;28;19951;-52
2022/04/30 14:23:18;;;;;;;;;;;;;;;;;;5055191;28;19951;-49
2022/04/30 14:25:45;;;;;;;;;;;;;;;;;;5069233;28;20438;-52
2022/04/30 14:28:11;;;;;;;;;;;;;;;;;;5075146;28;20275;-51
2022/04/30 14:30:47;;;;;;;;;;;;;;;;;;5074856;28;19955;-51
2022/04/30 14:33:13;;;;;;;;;;;;;;;;;;5075264;28;19961;-52
2022/04/30 14:35:39;;;;;;;;;;;;;;;;;;5075233;28;19915;-50
2022/04/30 14:38:08;;;;;;;;;;;;;;;;;;5072076;28;20293;-48
2022/04/30 14:40:35;;;;;;;;;;;;;;;;;;5054757;28;19912;-46
2022/04/30 14:43:01;;;;;;;;;;;;;;;;;;5053410;28;19944;-53
2022/04/30 14:45:28;;;;;;;;;;;;;;;;;;5054944;28;19909;-52
2022/04/30 14:47:54;;;;;;;;;;;;;;;;;;5054841;28;19909;-48
2022/04/30 14:50:21;;;;;;;;;;;;;;;;;;5054498;28;19927;-47
2022/04/30 14:52:51;;;;;;;;;;;;;;;;;;5064985;28;20007;-54
2022/04/30 14:55:18;;;;;;;;;;;;;;;;;;5074585;28;19909;-48
2022/04/30 14:57:44;;;;;;;;;;;;;;;;;;5074703;28;19920;-47
2022/04/30 15:00:11;;;;;;;;;;;;;;;;;;5074227;28;19913;-53
2022/04/30 15:02:37;;;;;;;;;;;;;;;;;;5074574;28;20278;-53
2022/04/30 15:05:04;;;;;;;;;;;;;;;;;;5074096;28;19953;-50
2022/04/30 15:07:30;;;;;;;;;;;;;;;;;;5073826;28;19912;-53
2022/04/30 15:09:57;;;;;;;;;;;;;;;;;;5074051;28;19916;-53
2022/04/30 15:12:23;;;;;;;;;;;;;;;;;;5074035;28;20252;-46
2022/04/30 15:14:50;;;;;;;;;;;;;;;;;;5073693;28;19954;-50
2022/04/30 15:17:16;;;;;;;;;;;;;;;;;;5074713;28;20045;-53
2022/04/30 15:19:43;;;;;;;;;;;;;;;;;;5074270;28;19962;-52
2022/04/30 15:22:09;;;;;;;;;;;;;;;;;;5074002;28;20279;-51
2022/04/30 15:24:37;;;;;;;;;;;;;;;;;;5057001;28;19913;-52
2022/04/30 15:27:04;;;;;;;;;;;;;;;;;;5054245;28;19913;-56
2022/04/30 15:29:30;;;;;;;;;;;;;;;;;;5055181;28;20386;-52
2022/04/30 15:31:57;;;;;;;;;;;;;;;;;;5074090;28;19915;-49
2022/04/30 15:34:23;;;;;;;;;;;;;;;;;;5073918;28;19909;-55
2022/04/30 15:36:50;;;;;;;;;;;;;;;;;;5073690;28;20341;-48
2022/04/30 15:39:16;;;;;;;;;;;;;;;;;;5073848;28;20302;-47
2022/04/30 15:41:43;;;;;;;;;;;;;;;;;;5074002;28;19909;-54
2022/04/30 15:44:09;;;;;;;;;;;;;;;;;;5073145;28;19917;-51
2022/04/30 15:52:05;;;;;;;;;;;;;;;;;;5073976;28;19919;-51
2022/04/30 15:54:31;;;;;;;;;;;;;;;;;;5073614;28;19916;-54
2022/04/30 15:56:58;;;;;;;;;;;;;;;;;;5073914;28;19942;-57
2022/04/30 15:59:26;;;;;;;;;;;;;;;;;;5073463;28;20416;-56
2022/04/30 16:01:52;;;;;;;;;;;;;;;;;;5073570;28;19908;-54
2022/04/30 16:04:19;;;;;;;;;;;;;;;;;;5073258;28;19990;-56
2022/04/30 16:06:45;;;;;;;;;;;;;;;;;;5073380;28;19920;-51
2022/04/30 16:09:12;;;;;;;;;;;;;;;;;;5073643;28;19916;-46
2022/04/30 16:11:38;;;;;;;;;;;;;;;;;;5073385;28;20011;-49
2022/04/30 16:14:05;;;;;;;;;;;;;;;;;;5073444;28;19961;-50
2022/04/30 16:16:35;;;;;;;;;;;;;;;;;;5073273;28;20391;-56
2022/04/30 16:19:01;;;;;;;;;;;;;;;;;;5073257;28;19908;-49
2022/04/30 16:21:28;;;;;;;;;;;;;;;;;;5073336;28;19936;-47
2022/04/30 16:23:54;;;;;;;;;;;;;;;;;;5073318;28;19952;-46
2022/04/30 16:26:21;;;;;;;;;;;;;;;;;;5073053;28;20011;-47
2022/04/30 16:28:47;;;;;;;;;;;;;;;;;;5066917;28;19924;-51
2022/04/30 16:31:14;;;;;;;;;;;;;;;;;;5053338;28;19954;-57
2022/04/30 16:33:40;;;;;;;;;;;;;;;;;;5053372;28;19916;-51
2022/04/30 16:36:06;;;;;;;;;;;;;;;;;;5051795;28;19938;-46
2022/04/30 16:38:33;;;;;;;;;;;;;;;;;;5053309;28;19916;-48
2022/04/30 16:40:59;;;;;;;;;;;;;;;;;;5052971;28;20378;-54
2022/04/30 16:43:27;;;;;;;;;;;;;;;;;;5052990;28;19912;-56
2022/04/30 16:45:53;;;;;;;;;;;;;;;;;;5052897;28;19909;-54
2022/04/30 16:48:20;;;;;;;;;;;;;;;;;;5052530;28;20340;-49
2022/04/30 16:53:31;;;;;;;;;;;;;;;;;;5033192;28;19997;-48
2022/04/30 16:58:43;;;;;;;;;;;;;;;;;;5045614;28;19994;-49
2022/04/30 17:01:11;;;;;;;;;;;;;;;;;;5053050;28;19909;-49
2022/04/30 17:03:38;;;;;;;;;;;;;;;;;;5052866;28;19936;-56
2022/04/30 17:06:04;;;;;;;;;;;;;;;;;;5055139;28;19940;-52
2022/04/30 17:08:39;;;;;;;;;;;;;;;;;;5072739;28;20336;-46
2022/04/30 17:11:05;;;;;;;;;;;;;;;;;;5072859;28;19999;-52
2022/04/30 17:13:31;;;;;;;;;;;;;;;;;;5071314;28;19962;-56
2022/04/30 17:15:58;;;;;;;;;;;;;;;;;;5072886;28;19919;-52
2022/04/30 17:18:24;;;;;;;;;;;;;;;;;;5072854;28;19909;-53
2022/04/30 17:20:51;;;;;;;;;;;;;;;;;;5072657;28;19915;-51
2022/04/30 17:23:17;;;;;;;;;;;;;;;;;;5072829;28;19916;-50
2022/04/30 17:25:44;;;;;;;;;;;;;;;;;;5072399;28;19938;-41
2022/04/30 17:28:13;;;;;;;;;;;;;;;;;;5072541;28;19908;-53
2022/04/30 17:38:54;;;;;;;;;;;;;;;;;;5076346;28;20292;-54
2022/04/30 17:41:20;;;;;;;;;;;;;;;;;;5076424;28;19905;-51
2022/04/30 17:43:48;;;;;;;;;;;;;;;;;;5076571;28;19912;-54
2022/04/30 17:46:16;;;;;;;;;;;;;;;;;;5075970;28;19908;-53
2022/04/30 17:48:43;;;;;;;;;;;;;;;;;;5076277;28;19938;-47